Time,TemperatureF,DewpointF,PressureIn,WindDirection,WindDirectionDegrees,WindSpeedMPH,WindSpeedGustMPH,Humidity,HourlyPrecipIn,Conditions,Clouds,dailyrainin,SoftwareType,DateUTC
2013-03-29 00:03:00,34.0,26.0,-100.00,East,80,0.0,1.0,72,0.00,,,-99.99,,2013-03-29 04:03:00,
2013-03-29 00:13:00,34.0,25.0,-100.00,NE,40,0.0,0.0,69,0.00,,,-99.99,,2013-03-29 04:13:00,
2013-03-29 00:22:00,33.0,27.0,-100.00,SE,125,0.0,2.0,77,0.00,,,-99.99,,2013-03-29 04:22:00,
2013-03-29 00:33:00,36.0,26.0,-100.00,North,5,0.0,2.0,67,0.00,,,-99.99,,2013-03-29 04:33:00,
2013-03-29 00:43:00,34.0,26.0,-100.00,NNE,30,1.0,1.0,74,0.00,,,-99.99,,2013-03-29 04:43:00,
2013-03-29 00:52:00,33.0,26.0,-100.00,East,85,1.0,2.0,75,0.00,,,-99.99,,2013-03-29 04:52:00,
2013-03-29 01:03:00,33.0,26.0,-100.00,ENE,70,1.0,1.0,75,0.00,,,-99.99,,2013-03-29 05:03:00,
2013-03-29 01:12:00,33.0,27.0,-100.00,ENE,65,1.0,2.0,79,0.00,,,-99.99,,2013-03-29 05:12:00,
2013-03-29 01:23:00,33.0,27.0,-100.00,ENE,65,1.0,2.0,79,0.00,,,-99.99,,2013-03-29 05:23:00,
2013-03-29 01:33:00,32.0,26.0,-100.00,ENE,70,0.0,0.0,77,0.00,,,-99.99,,2013-03-29 05:33:00,
2013-03-29 01:43:00,31.0,26.0,-100.00,ENE,75,0.0,1.0,81,0.00,,,-99.99,,2013-03-29 05:43:00,
2013-03-29 01:52:00,31.0,27.0,-100.00,East,80,0.0,0.0,82,0.00,,,-99.99,,2013-03-29 05:52:00,
2013-03-29 02:02:00,31.0,26.0,-100.00,East,95,1.0,1.0,83,0.00,,,-99.99,,2013-03-29 06:02:00,
2013-03-29 02:12:00,31.0,26.0,-100.00,NE,45,0.0,0.0,82,0.00,,,-99.99,,2013-03-29 06:12:00,
2013-03-29 02:23:00,31.0,26.0,-100.00,East,80,1.0,1.0,84,0.00,,,-99.99,,2013-03-29 06:23:00,
2013-03-29 02:32:00,30.0,26.0,-100.00,ENE,70,0.0,1.0,84,0.00,,,-99.99,,2013-03-29 06:32:00,
2013-03-29 02:42:00,30.0,26.0,-100.00,ENE,60,0.0,1.0,85,0.00,,,-99.99,,2013-03-29 06:42:00,
2013-03-29 02:52:00,30.0,26.0,-100.00,East,95,0.0,1.0,84,0.00,,,-99.99,,2013-03-29 06:52:00,
2013-03-29 03:03:00,30.0,26.0,-100.00,East,95,1.0,1.0,85,0.00,,,-99.99,,2013-03-29 07:03:00,
2013-03-29 03:12:00,30.0,26.0,-100.00,East,90,0.0,1.0,85,0.00,,,-99.99,,2013-03-29 07:12:00,
2013-03-29 03:22:00,29.0,26.0,-100.00,East,85,0.0,1.0,85,0.00,,,-99.99,,2013-03-29 07:22:00,
2013-03-29 03:32:00,30.0,26.0,-100.00,East,80,0.0,0.0,86,0.00,,,-99.99,,2013-03-29 07:32:00,
2013-03-29 03:42:00,29.0,26.0,-100.00,East,90,0.0,0.0,86,0.00,,,-99.99,,2013-03-29 07:42:00,
2013-03-29 03:52:00,29.0,26.0,-100.00,East,80,0.0,1.0,87,0.00,,,-99.99,,2013-03-29 07:52:00,
2013-03-29 04:02:00,29.0,25.0,-100.00,East,95,0.0,1.0,87,0.00,,,-99.99,,2013-03-29 08:02:00,
2013-03-29 04:12:00,29.0,26.0,-100.00,ENE,75,0.0,1.0,88,0.00,,,-99.99,,2013-03-29 08:12:00,
2013-03-29 04:22:00,29.0,26.0,-100.00,ENE,75,1.0,1.0,88,0.00,,,-99.99,,2013-03-29 08:22:00,
2013-03-29 04:32:00,28.0,26.0,-100.00,ENE,60,0.0,1.0,88,0.00,,,-99.99,,2013-03-29 08:32:00,
2013-03-29 04:42:00,29.0,26.0,-100.00,East,80,0.0,0.0,88,0.00,,,-99.99,,2013-03-29 08:42:00,
2013-03-29 04:52:00,29.0,26.0,-100.00,ENE,75,0.0,0.0,88,0.00,,,-99.99,,2013-03-29 08:52:00,
2013-03-29 05:02:00,28.0,26.0,-100.00,East,90,0.0,1.0,89,0.00,,,-99.99,,2013-03-29 09:02:00,
2013-03-29 05:13:00,28.0,25.0,-100.00,ENE,65,0.0,0.0,88,0.00,,,-99.99,,2013-03-29 09:13:00,
2013-03-29 05:22:00,28.0,25.0,-100.00,ENE,75,0.0,1.0,89,0.00,,,-99.99,,2013-03-29 09:22:00,
2013-03-29 05:33:00,28.0,25.0,-100.00,NE,45,0.0,0.0,89,0.00,,,-99.99,,2013-03-29 09:33:00,
2013-03-29 05:42:00,28.0,25.0,-100.00,East,85,0.0,1.0,89,0.00,,,-99.99,,2013-03-29 09:42:00,
2013-03-29 05:52:00,28.0,25.0,-100.00,ENE,60,0.0,0.0,90,0.00,,,-99.99,,2013-03-29 09:52:00,
2013-03-29 06:03:00,28.0,25.0,-100.00,ENE,75,0.0,1.0,90,0.00,,,-99.99,,2013-03-29 10:03:00,
2013-03-29 06:12:00,27.0,24.0,-100.00,ESE,105,1.0,1.0,90,0.00,,,-99.99,,2013-03-29 10:12:00,
2013-03-29 06:23:00,27.0,24.0,-100.00,ESE,105,0.0,3.0,90,0.00,,,-99.99,,2013-03-29 10:23:00,
2013-03-29 06:33:00,27.0,25.0,-100.00,East,85,0.0,1.0,91,0.00,,,-99.99,,2013-03-29 10:33:00,
2013-03-29 06:42:00,27.0,25.0,-100.00,ENE,70,0.0,0.0,91,0.00,,,-99.99,,2013-03-29 10:42:00,
2013-03-29 06:52:00,27.0,25.0,-100.00,ENE,70,0.0,0.0,91,0.00,,,-99.99,,2013-03-29 10:52:00,
2013-03-29 07:03:00,27.0,25.0,-100.00,East,90,0.0,0.0,92,0.00,,,-99.99,,2013-03-29 11:03:00,
2013-03-29 07:12:00,27.0,25.0,-100.00,East,95,0.0,1.0,91,0.00,,,-99.99,,2013-03-29 11:12:00,
2013-03-29 07:23:00,27.0,25.0,-100.00,East,95,1.0,1.0,91,0.00,,,-99.99,,2013-03-29 11:23:00,
2013-03-29 07:33:00,27.0,25.0,-100.00,East,85,0.0,1.0,91,0.00,,,-99.99,,2013-03-29 11:33:00,
2013-03-29 07:42:00,27.0,25.0,-100.00,ENE,60,0.0,0.0,92,0.00,,,-99.99,,2013-03-29 11:42:00,
2013-03-29 07:52:00,27.0,25.0,-100.00,East,80,0.0,2.0,92,0.00,,,-99.99,,2013-03-29 11:52:00,
2013-03-29 08:03:00,27.0,25.0,-100.00,East,85,0.0,1.0,92,0.00,,,-99.99,,2013-03-29 12:03:00,
2013-03-29 08:12:00,27.0,25.0,-100.00,East,85,1.0,1.0,92,0.00,,,-99.99,,2013-03-29 12:12:00,
2013-03-29 08:22:00,27.0,25.0,-100.00,ESE,105,1.0,2.0,92,0.00,,,-99.99,,2013-03-29 12:22:00,
2013-03-29 08:32:00,28.0,26.0,-100.00,East,95,0.0,2.0,92,0.00,,,-99.99,,2013-03-29 12:32:00,
2013-03-29 08:42:00,28.0,26.0,-100.00,ESE,105,1.0,2.0,91,0.00,,,-99.99,,2013-03-29 12:42:00,
2013-03-29 08:52:00,29.0,27.0,-100.00,East,80,0.0,1.0,91,0.00,,,-99.99,,2013-03-29 12:52:00,
2013-03-29 09:03:00,31.0,28.0,-100.00,ESE,115,0.0,1.0,89,0.00,,,-99.99,,2013-03-29 13:03:00,
2013-03-29 09:12:00,31.0,28.0,-100.00,SE,135,1.0,2.0,87,0.00,,,-99.99,,2013-03-29 13:12:00,
2013-03-29 09:22:00,32.0,28.0,-100.00,SSE,150,0.0,3.0,85,0.00,,,-99.99,,2013-03-29 13:22:00,
2013-03-29 09:33:00,34.0,29.0,-100.00,SE,130,0.0,4.0,80,0.00,,,-99.99,,2013-03-29 13:33:00,
2013-03-29 09:42:00,35.0,29.0,-100.00,South,170,1.0,6.0,76,0.00,,,-99.99,,2013-03-29 13:42:00,
2013-03-29 09:52:00,37.0,28.0,-100.00,South,170,0.0,5.0,69,0.00,,,-99.99,,2013-03-29 13:52:00,
2013-03-29 10:03:00,38.0,28.0,-100.00,SE,125,0.0,3.0,66,0.00,,,-99.99,,2013-03-29 14:03:00,
2013-03-29 10:12:00,40.0,28.0,-100.00,West,280,0.0,3.0,62,0.00,,,-99.99,,2013-03-29 14:12:00,
2013-03-29 10:22:00,41.0,29.0,-100.00,SSE,155,0.0,4.0,62,0.00,,,-99.99,,2013-03-29 14:22:00,
2013-03-29 10:33:00,42.0,29.0,-100.00,SE,140,1.0,3.0,59,0.00,,,-99.99,,2013-03-29 14:33:00,
2013-03-29 10:42:00,43.0,28.0,-100.00,SW,215,1.0,3.0,55,0.00,,,-99.99,,2013-03-29 14:42:00,
2013-03-29 10:52:00,44.0,29.0,-100.00,WNW,300,1.0,4.0,54,0.00,,,-99.99,,2013-03-29 14:52:00,
2013-03-29 11:02:00,45.0,29.0,-100.00,ESE,120,0.0,3.0,52,0.00,,,-99.99,,2013-03-29 15:02:00,
2013-03-29 11:12:00,47.0,29.0,-100.00,NE,35,1.0,4.0,49,0.00,,,-99.99,,2013-03-29 15:12:00,
2013-03-29 11:22:00,48.0,29.0,-100.00,SSW,195,1.0,5.0,46,0.00,,,-99.99,,2013-03-29 15:22:00,
2013-03-29 11:33:00,50.0,30.0,-100.00,South,180,1.0,6.0,46,0.00,,,-99.99,,2013-03-29 15:33:00,
2013-03-29 11:43:00,50.0,28.0,-100.00,SE,135,1.0,7.0,42,0.00,,,-99.99,,2013-03-29 15:43:00,
2013-03-29 11:52:00,51.0,27.0,-100.00,SSW,205,4.0,7.0,38,0.00,,,-99.99,,2013-03-29 15:52:00,
2013-03-29 12:03:00,51.0,26.0,-100.00,North,0,0.0,6.0,37,0.00,,,-99.99,,2013-03-29 16:03:00,
2013-03-29 12:13:00,53.0,25.0,-100.00,NW,315,2.0,6.0,33,0.00,,,-99.99,,2013-03-29 16:13:00,
2013-03-29 12:23:00,52.0,24.0,-100.00,WNW,300,5.0,12.0,33,0.00,,,-99.99,,2013-03-29 16:23:00,
2013-03-29 12:33:00,53.0,25.0,-100.00,SSE,150,1.0,7.0,33,0.00,,,-99.99,,2013-03-29 16:33:00,
2013-03-29 12:42:00,54.0,24.0,-100.00,WSW,255,5.0,10.0,30,0.00,,,-99.99,,2013-03-29 16:42:00,
2013-03-29 12:52:00,54.0,23.0,-100.00,NW,325,1.0,5.0,30,0.00,,,-99.99,,2013-03-29 16:52:00,
2013-03-29 13:03:00,53.0,23.0,-100.00,WNW,300,3.0,12.0,30,0.00,,,-99.99,,2013-03-29 17:03:00,
2013-03-29 13:12:00,55.0,24.0,-100.00,SSW,195,4.0,9.0,30,0.00,,,-99.99,,2013-03-29 17:12:00,
2013-03-29 13:22:00,55.0,24.0,-100.00,SSW,195,2.0,6.0,30,0.00,,,-99.99,,2013-03-29 17:22:00,
2013-03-29 13:33:00,55.0,25.0,-100.00,NW,310,1.0,7.0,31,0.00,,,-99.99,,2013-03-29 17:33:00,
2013-03-29 13:43:00,55.0,25.0,-100.00,NW,320,3.0,6.0,30,0.00,,,-99.99,,2013-03-29 17:43:00,
2013-03-29 13:52:00,56.0,24.0,-100.00,WSW,245,2.0,6.0,28,0.00,,,-99.99,,2013-03-29 17:52:00,
2013-03-29 14:02:00,56.0,25.0,-100.00,SSE,155,2.0,10.0,29,0.00,,,-99.99,,2013-03-29 18:02:00,
2013-03-29 14:12:00,57.0,24.0,-100.00,NW,305,6.0,12.0,27,0.00,,,-99.99,,2013-03-29 18:12:00,
2013-03-29 14:23:00,56.0,24.0,-100.00,SE,125,1.0,12.0,28,0.00,,,-99.99,,2013-03-29 18:23:00,
2013-03-29 14:32:00,57.0,25.0,-100.00,WNW,295,6.0,10.0,28,0.00,,,-99.99,,2013-03-29 18:32:00,
2013-03-29 14:42:00,57.0,25.0,-100.00,SE,130,1.0,6.0,29,0.00,,,-99.99,,2013-03-29 18:42:00,
2013-03-29 14:52:00,58.0,24.0,-100.00,NW,325,3.0,10.0,26,0.00,,,-99.99,,2013-03-29 18:52:00,
2013-03-29 15:03:00,57.0,24.0,-100.00,NNW,330,7.0,12.0,27,0.00,,,-99.99,,2013-03-29 19:03:00,
2013-03-29 15:12:00,58.0,24.0,-100.00,NE,45,1.0,9.0,27,0.00,,,-99.99,,2013-03-29 19:12:00,
2013-03-29 15:23:00,59.0,24.0,-100.00,West,280,2.0,11.0,25,0.00,,,-99.99,,2013-03-29 19:23:00,
2013-03-29 15:33:00,58.0,22.0,-100.00,NW,305,4.0,10.0,25,0.00,,,-99.99,,2013-03-29 19:33:00,
2013-03-29 15:42:00,58.0,23.0,-100.00,NW,310,3.0,12.0,25,0.00,,,-99.99,,2013-03-29 19:42:00,
2013-03-29 15:52:00,58.0,23.0,-100.00,NW,325,6.0,14.0,25,0.00,,,-99.99,,2013-03-29 19:52:00,
2013-03-29 16:03:00,58.0,22.0,-100.00,West,260,4.0,19.0,24,0.00,,,-99.99,,2013-03-29 20:03:00,
2013-03-29 16:12:00,58.0,22.0,-100.00,West,270,4.0,15.0,25,0.00,,,-99.99,,2013-03-29 20:12:00,
2013-03-29 16:22:00,59.0,23.0,-100.00,West,275,2.0,9.0,24,0.00,,,-99.99,,2013-03-29 20:22:00,
2013-03-29 16:33:00,57.0,21.0,-100.00,WSW,250,0.0,9.0,24,0.00,,,-99.99,,2013-03-29 20:33:00,
2013-03-29 16:42:00,57.0,22.0,-100.00,NW,310,7.0,11.0,25,0.00,,,-99.99,,2013-03-29 20:42:00,
2013-03-29 16:52:00,57.0,22.0,-100.00,West,275,2.0,13.0,25,0.00,,,-99.99,,2013-03-29 20:52:00,
2013-03-29 17:02:00,58.0,22.0,-100.00,NW,310,6.0,11.0,24,0.00,,,-99.99,,2013-03-29 21:02:00,
2013-03-29 17:12:00,58.0,23.0,-100.00,WNW,290,4.0,17.0,25,0.00,,,-99.99,,2013-03-29 21:12:00,
2013-03-29 17:22:00,59.0,23.0,-100.00,WNW,300,4.0,9.0,25,0.00,,,-99.99,,2013-03-29 21:22:00,
2013-03-29 17:33:00,58.0,24.0,-100.00,NW,305,9.0,12.0,26,0.00,,,-99.99,,2013-03-29 21:33:00,
2013-03-29 17:42:00,57.0,24.0,-100.00,WNW,300,4.0,12.0,26,0.00,,,-99.99,,2013-03-29 21:42:00,
2013-03-29 17:53:00,58.0,24.0,-100.00,NW,310,5.0,10.0,27,0.00,,,-99.99,,2013-03-29 21:53:00,
2013-03-29 18:03:00,58.0,25.0,-100.00,WNW,300,4.0,8.0,27,0.00,,,-99.99,,2013-03-29 22:03:00,
2013-03-29 18:12:00,57.0,24.0,-100.00,NW,320,2.0,11.0,27,0.00,,,-99.99,,2013-03-29 22:12:00,
2013-03-29 18:23:00,57.0,24.0,-100.00,WNW,300,2.0,9.0,27,0.00,,,-99.99,,2013-03-29 22:23:00,
2013-03-29 18:33:00,57.0,25.0,-100.00,WNW,300,4.0,6.0,28,0.00,,,-99.99,,2013-03-29 22:33:00,
2013-03-29 18:42:00,57.0,24.0,-100.00,NW,305,2.0,6.0,28,0.00,,,-99.99,,2013-03-29 22:42:00,
2013-03-29 18:53:00,57.0,24.0,-100.00,NW,305,3.0,5.0,28,0.00,,,-99.99,,2013-03-29 22:53:00,
2013-03-29 19:03:00,57.0,25.0,-100.00,WNW,295,2.0,5.0,28,0.00,,,-99.99,,2013-03-29 23:03:00,
2013-03-29 19:12:00,56.0,25.0,-100.00,WNW,295,0.0,4.0,29,0.00,,,-99.99,,2013-03-29 23:12:00,
2013-03-29 19:22:00,56.0,25.0,-100.00,SW,230,1.0,4.0,29,0.00,,,-99.99,,2013-03-29 23:22:00,
2013-03-29 19:32:00,56.0,25.0,-100.00,NNE,20,0.0,3.0,30,0.00,,,-99.99,,2013-03-29 23:32:00,
2013-03-29 19:42:00,56.0,25.0,-100.00,North,355,0.0,3.0,30,0.00,,,-99.99,,2013-03-29 23:42:00,
2013-03-29 19:52:00,55.0,25.0,-100.00,NW,325,1.0,3.0,30,0.00,,,-99.99,,2013-03-29 23:52:00,
2013-03-29 20:03:00,55.0,25.0,-100.00,NNW,340,2.0,5.0,31,0.00,,,-99.99,,2013-03-30 00:03:00,
2013-03-29 20:12:00,54.0,24.0,-100.00,NNW,330,0.0,4.0,31,0.00,,,-99.99,,2013-03-30 00:12:00,
2013-03-29 20:22:00,53.0,24.0,-100.00,NW,325,0.0,2.0,32,0.00,,,-99.99,,2013-03-30 00:22:00,
2013-03-29 20:32:00,53.0,25.0,-100.00,West,280,0.0,0.0,33,0.00,,,-99.99,,2013-03-30 00:32:00,
2013-03-29 20:42:00,53.0,24.0,-100.00,SE,145,0.0,2.0,32,0.00,,,-99.99,,2013-03-30 00:42:00,
2013-03-29 21:03:00,52.0,24.0,-100.00,NE,55,0.0,1.0,33,0.00,,,-99.99,,2013-03-30 01:03:00,
2013-03-29 21:12:00,51.0,28.0,-100.00,SW,235,0.0,2.0,40,0.00,,,-99.99,,2013-03-30 01:12:00,
2013-03-29 21:22:00,50.0,27.0,-100.00,SSE,155,0.0,0.0,40,0.00,,,-99.99,,2013-03-30 01:22:00,
2013-03-29 21:33:00,51.0,25.0,-100.00,North,5,0.0,1.0,36,0.00,,,-99.99,,2013-03-30 01:33:00,
2013-03-29 21:43:00,50.0,26.0,-100.00,North,350,0.0,1.0,39,0.00,,,-99.99,,2013-03-30 01:43:00,
2013-03-29 21:52:00,50.0,25.0,-100.00,NNE,25,0.0,0.0,37,0.00,,,-99.99,,2013-03-30 01:52:00,
2013-03-29 22:03:00,50.0,25.0,-100.00,NNE,15,0.0,0.0,37,0.00,,,-99.99,,2013-03-30 02:03:00,
2013-03-29 22:12:00,49.0,25.0,-100.00,NNE,30,1.0,1.0,39,0.00,,,-99.99,,2013-03-30 02:12:00,
2013-03-29 22:22:00,48.0,28.0,-100.00,NNE,25,0.0,1.0,45,0.00,,,-99.99,,2013-03-30 02:22:00,
2013-03-29 22:33:00,47.0,27.0,-100.00,NNE,30,0.0,1.0,45,0.00,,,-99.99,,2013-03-30 02:33:00,
2013-03-29 22:42:00,46.0,32.0,-100.00,WSW,250,0.0,1.0,58,0.00,,,-99.99,,2013-03-30 02:42:00,
2013-03-29 22:52:00,45.0,32.0,-100.00,NNE,30,0.0,1.0,59,0.00,,,-99.99,,2013-03-30 02:52:00,
2013-03-29 23:03:00,45.0,28.0,-100.00,ENE,70,0.0,1.0,50,0.00,,,-99.99,,2013-03-30 03:03:00,
2013-03-29 23:12:00,45.0,28.0,-100.00,ENE,65,0.0,0.0,50,0.00,,,-99.99,,2013-03-30 03:12:00,
2013-03-29 23:22:00,46.0,28.0,-100.00,NE,50,0.0,0.0,49,0.00,,,-99.99,,2013-03-30 03:22:00,
2013-03-29 23:33:00,46.0,28.0,-100.00,ENE,60,0.0,0.0,49,0.00,,,-99.99,,2013-03-30 03:33:00,
2013-03-29 23:43:00,44.0,33.0,-100.00,NE,55,0.0,0.0,65,0.00,,,-99.99,,2013-03-30 03:43:00,
2013-03-29 23:53:00,44.0,28.0,-100.00,NE,55,0.0,0.0,53,0.00,,,-99.99,,2013-03-30 03:53:00,